»·PEaware :: N140SW KAJO-KVCV

N140SW :: KAJO-KVCV

FLIGHT INFORMATION

Flight Status: Arrived
Operator: Privately registered:
United States
More flights under this callsign
Pilot: Brad G. (30387)
Aircraft: PIAGGIO P-180 AVANTI
(P180)
More flights by this aircraft type
Origin: KAJO Corona Mun
United States
Destination: KVCV Socal Logistics
United States
More flights between these airports :: More routes between these airports
Route: PDZ APLES
File this flight plan on PilotEdge
Remarks:
Altitude:
(Current/Filed)
12,000ft
Speed:
(Current/Filed)
250kts
Departed: 29-Sep-20 10:42 AM
Arrived: 29-Sep-20 11:53 AM
Distance/Time
Traveled:
43nm/1:11
Distance/Time
To Go:
Arrived

Flight Plot

Page will automatically refresh every two minutes.


Map Options




Map Legend


Flown Route
Filed Route
Departure Airport
Arrival Airport
Navaid (VOR, NDB)
Fix

Horizontal Profiles

Position Reports

Time Latitude Longitude Heading Altitude Ground
Speed
29-Sep-20 10:23 33.896154 -117.603229 197 538ft 0kts
29-Sep-20 10:24 33.896154 -117.603229 197 538ft 0kts
29-Sep-20 10:25 33.896154 -117.603229 197 538ft 0kts
29-Sep-20 10:26 33.896154 -117.603229 197 538ft 0kts
29-Sep-20 10:27 33.896154 -117.603229 197 538ft 0kts
29-Sep-20 10:28 33.896154 -117.603229 197 538ft 0kts
29-Sep-20 10:29 33.896154 -117.603229 197 538ft 0kts
29-Sep-20 10:30 33.896154 -117.603229 197 538ft 0kts
29-Sep-20 10:31 33.896154 -117.603229 197 538ft 0kts
29-Sep-20 10:32 33.896154 -117.603229 197 538ft 0kts
29-Sep-20 10:33 33.896154 -117.603229 197 538ft 0kts
29-Sep-20 10:34 33.896154 -117.603229 197 538ft 0kts
29-Sep-20 10:35 33.896154 -117.603229 197 538ft 0kts
29-Sep-20 10:36 33.896353 -117.603211 2 538ft 12kts
29-Sep-20 10:37 33.897225 -117.604609 269 538ft 11kts
29-Sep-20 10:38 33.897193 -117.607223 272 538ft 0kts
29-Sep-20 10:39 33.897193 -117.607223 272 538ft 0kts
29-Sep-20 10:40 33.897318 -117.607516 330 538ft 4kts
29-Sep-20 10:41 33.897706 -117.600695 90 549ft 123kts
29-Sep-20 10:42 33.910593 -117.553261 68 2411ft 162kts
29-Sep-20 10:43 33.935700 -117.508553 43 3868ft 166kts
29-Sep-20 10:44 33.972993 -117.490593 309 5300ft 160kts
29-Sep-20 10:45 33.950842 -117.520665 181 6005ft 166kts
29-Sep-20 10:46 33.913770 -117.541029 266 5989ft 159kts
29-Sep-20 10:47 33.946194 -117.548795 42 6034ft 171kts
29-Sep-20 10:48 33.974914 -117.503422 93 7540ft 180kts
29-Sep-20 10:49 33.939959 -117.499332 229 10914ft 172kts
29-Sep-20 10:50 33.913707 -117.546655 277 11003ft 171kts
29-Sep-20 10:51 33.950453 -117.550857 41 11029ft 182kts
29-Sep-20 10:52 33.982299 -117.504652 85 10981ft 185kts
29-Sep-20 10:53 33.958473 -117.483813 207 11016ft 178kts
29-Sep-20 10:54 33.897050 -117.607166 1 538ft 0kts
29-Sep-20 10:55 33.897050 -117.607166 1 538ft 0kts
29-Sep-20 10:56 33.897050 -117.607166 1 538ft 0kts
29-Sep-20 10:57 33.897050 -117.607166 1 538ft 0kts
29-Sep-20 10:58 33.897173 -117.607235 310 538ft 0kts
29-Sep-20 10:59 33.897173 -117.607235 310 538ft 0kts
29-Sep-20 11:00 33.897531 -117.607283 50 538ft 5kts
29-Sep-20 11:01 33.897645 -117.599343 89 538ft 57kts
29-Sep-20 11:02 33.897182 -117.597831 255 538ft 0kts
29-Sep-20 11:03 33.897197 -117.604252 284 538ft 0kts
29-Sep-20 11:04 33.897231 -117.604791 270 538ft 3kts
29-Sep-20 11:06 33.897190 -117.607004 268 538ft 0kts
29-Sep-20 11:07 33.897605 -117.607272 83 538ft 9kts
29-Sep-20 11:08 33.904087 -117.570499 67 1613ft 158kts
29-Sep-20 11:09 33.923966 -117.523194 43 2749ft 163kts
29-Sep-20 11:10 33.957565 -117.486295 12 3994ft 164kts
29-Sep-20 11:11 33.966202 -117.519177 198 4977ft 161kts
29-Sep-20 11:12 33.922446 -117.525644 217 5009ft 158kts
29-Sep-20 11:13 33.933620 -117.559249 15 6756ft 171kts
29-Sep-20 11:14 33.969594 -117.521870 42 10470ft 180kts
29-Sep-20 11:15 34.005374 -117.479292 42 11005ft 182kts
29-Sep-20 11:16 34.062851 -117.442557 23 11093ft 285kts
29-Sep-20 11:17 34.131135 -117.402105 24 11008ft 262kts
29-Sep-20 11:18 34.196570 -117.362660 24 11004ft 263kts
29-Sep-20 11:19 34.261922 -117.323199 25 11001ft 263kts
29-Sep-20 11:20 34.327454 -117.283559 25 11001ft 263kts
29-Sep-20 11:20 34.381767 -117.250656 25 11001ft 263kts
29-Sep-20 11:22 34.458093 -117.204337 25 10800ft 263kts
29-Sep-20 11:23 34.523198 -117.164764 25 10807ft 262kts
29-Sep-20 11:23 34.580999 -117.144245 3 10386ft 260kts
29-Sep-20 11:24 34.651094 -117.153526 342 8863ft 251kts
29-Sep-20 11:26 34.721805 -117.198113 320 7104ft 244kts
29-Sep-20 11:26 34.759971 -117.247139 304 6427ft 239kts
29-Sep-20 11:27 34.788728 -117.317390 286 6337ft 217kts
29-Sep-20 11:28 34.769344 -117.374377 191 4775ft 198kts
29-Sep-20 11:29 34.716347 -117.379122 186 4109ft 190kts
29-Sep-20 11:30 34.665320 -117.383757 185 3797ft 172kts
29-Sep-20 11:31 34.619044 -117.387807 185 3121ft 172kts
29-Sep-20 11:32 34.574392 -117.403508 250 4999ft 170kts
29-Sep-20 11:33 34.600042 -117.450563 312 5796ft 173kts
29-Sep-20 11:34 34.614655 -117.504940 282 5807ft 170kts
29-Sep-20 11:35 34.631689 -117.556402 341 5339ft 173kts
29-Sep-20 11:36 34.674193 -117.529465 30 5309ft 179kts
29-Sep-20 11:37 34.720017 -117.506410 20 5308ft 178kts
29-Sep-20 11:38 34.765967 -117.483404 29 5299ft 179kts
29-Sep-20 11:39 34.804470 -117.436967 49 5306ft 202kts
29-Sep-20 11:40 34.826203 -117.376591 96 5323ft 202kts
29-Sep-20 11:41 34.815756 -117.315058 140 5353ft 176kts
29-Sep-20 11:42 34.810320 -117.267797 18 5281ft 172kts
29-Sep-20 11:43 34.830469 -117.303920 268 5299ft 159kts
29-Sep-20 11:44 34.829865 -117.357463 268 5311ft 156kts
29-Sep-20 11:45 34.800926 -117.388063 183 5324ft 162kts
29-Sep-20 11:46 34.755931 -117.388240 181 5008ft 161kts
29-Sep-20 11:47 34.710323 -117.387786 181 4243ft 181kts
29-Sep-20 11:48 34.660348 -117.384823 173 4659ft 153kts
29-Sep-20 11:49 34.628162 -117.380904 204 3676ft 104kts
29-Sep-20 11:50 34.614433 -117.372687 42 3851ft 130kts
29-Sep-20 11:51 34.612515 -117.352192 224 3631ft 124kts
29-Sep-20 11:52 34.594762 -117.373431 219 2860ft 21kts
29-Sep-20 11:53 34.590516 -117.378306 192 2868ft 10kts
29-Sep-20 11:54 34.589513 -117.377426 136 2870ft 13kts
29-Sep-20 11:55 34.587932 -117.375589 320 2871ft 0kts

Navigation Log

Ident Type
Flight plan parsing failed, navigation log unavailable